sensor_id;sensor_type;location;lat;lon;timestamp;temperature;humidity
51007;DHT22;37034;47.886;-3.904;2022-10-16T00:01:27;18.00;92.80
51007;DHT22;37034;47.886;-3.904;2022-10-16T00:03:53;17.90;92.70
51007;DHT22;37034;47.886;-3.904;2022-10-16T00:06:20;17.90;92.60
51007;DHT22;37034;47.886;-3.904;2022-10-16T00:08:46;17.90;92.70
51007;DHT22;37034;47.886;-3.904;2022-10-16T00:11:21;17.90;92.80
51007;DHT22;37034;47.886;-3.904;2022-10-16T00:13:48;17.90;92.80
51007;DHT22;37034;47.886;-3.904;2022-10-16T00:16:15;17.90;92.70
51007;DHT22;37034;47.886;-3.904;2022-10-16T00:18:41;17.80;92.70
51007;DHT22;37034;47.886;-3.904;2022-10-16T00:21:09;17.80;92.60
51007;DHT22;37034;47.886;-3.904;2022-10-16T00:23:35;17.80;92.60
51007;DHT22;37034;47.886;-3.904;2022-10-16T00:26:04;17.80;92.80
51007;DHT22;37034;47.886;-3.904;2022-10-16T00:28:31;17.80;92.90
51007;DHT22;37034;47.886;-3.904;2022-10-16T00:30:57;17.80;92.90
51007;DHT22;37034;47.886;-3.904;2022-10-16T00:33:23;17.80;92.90
51007;DHT22;37034;47.886;-3.904;2022-10-16T00:35:49;17.80;93.00
51007;DHT22;37034;47.886;-3.904;2022-10-16T00:38:15;17.90;93.00
51007;DHT22;37034;47.886;-3.904;2022-10-16T00:40:41;17.80;92.90
51007;DHT22;37034;47.886;-3.904;2022-10-16T00:43:39;17.90;92.80
51007;DHT22;37034;47.886;-3.904;2022-10-16T00:46:27;17.80;92.80
51007;DHT22;37034;47.886;-3.904;2022-10-16T00:49:12;17.80;93.00
51007;DHT22;37034;47.886;-3.904;2022-10-16T00:51:39;17.80;93.00
51007;DHT22;37034;47.886;-3.904;2022-10-16T00:54:30;17.80;92.90
51007;DHT22;37034;47.886;-3.904;2022-10-16T00:56:55;17.80;92.90
51007;DHT22;37034;47.886;-3.904;2022-10-16T00:59:30;17.80;92.90
51007;DHT22;37034;47.886;-3.904;2022-10-16T01:01:57;17.90;93.10
51007;DHT22;37034;47.886;-3.904;2022-10-16T01:04:24;17.90;92.90
51007;DHT22;37034;47.886;-3.904;2022-10-16T01:07:12;17.90;92.70
51007;DHT22;37034;47.886;-3.904;2022-10-16T01:12:51;17.80;92.90
51007;DHT22;37034;47.886;-3.904;2022-10-16T01:18:16;17.70;92.90
51007;DHT22;37034;47.886;-3.904;2022-10-16T01:20:53;17.80;93.00
51007;DHT22;37034;47.886;-3.904;2022-10-16T01:26:13;17.70;93.00
51007;DHT22;37034;47.886;-3.904;2022-10-16T01:31:30;17.70;92.90
51007;DHT22;37034;47.886;-3.904;2022-10-16T01:34:14;17.70;93.00
51007;DHT22;37034;47.886;-3.904;2022-10-16T01:36:45;17.70;93.10
51007;DHT22;37034;47.886;-3.904;2022-10-16T01:39:13;17.70;92.90
51007;DHT22;37034;47.886;-3.904;2022-10-16T01:41:46;17.70;92.90
51007;DHT22;37034;47.886;-3.904;2022-10-16T01:46:43;17.70;92.70
51007;DHT22;37034;47.886;-3.904;2022-10-16T01:49:12;17.60;92.50
51007;DHT22;37034;47.886;-3.904;2022-10-16T01:51:38;17.50;92.30
51007;DHT22;37034;47.886;-3.904;2022-10-16T01:54:05;17.50;92.20
51007;DHT22;37034;47.886;-3.904;2022-10-16T01:56:32;17.40;92.30
51007;DHT22;37034;47.886;-3.904;2022-10-16T01:59:09;17.30;92.50
51007;DHT22;37034;47.886;-3.904;2022-10-16T02:01:39;17.20;92.60
51007;DHT22;37034;47.886;-3.904;2022-10-16T02:04:21;17.20;92.50
51007;DHT22;37034;47.886;-3.904;2022-10-16T02:06:49;17.10;92.50
51007;DHT22;37034;47.886;-3.904;2022-10-16T02:09:15;17.10;92.50
51007;DHT22;37034;47.886;-3.904;2022-10-16T02:11:43;17.10;92.60
51007;DHT22;37034;47.886;-3.904;2022-10-16T02:14:09;17.00;92.30
51007;DHT22;37034;47.886;-3.904;2022-10-16T02:16:44;17.00;92.40
51007;DHT22;37034;47.886;-3.904;2022-10-16T02:19:11;16.90;92.60
51007;DHT22;37034;47.886;-3.904;2022-10-16T02:21:46;17.00;92.80
51007;DHT22;37034;47.886;-3.904;2022-10-16T02:24:53;17.00;92.80
51007;DHT22;37034;47.886;-3.904;2022-10-16T02:27:40;16.90;92.80
51007;DHT22;37034;47.886;-3.904;2022-10-16T02:30:15;16.90;92.70
51007;DHT22;37034;47.886;-3.904;2022-10-16T02:32:45;16.90;92.70
51007;DHT22;37034;47.886;-3.904;2022-10-16T02:35:13;16.90;92.80
51007;DHT22;37034;47.886;-3.904;2022-10-16T02:37:40;16.90;92.70
51007;DHT22;37034;47.886;-3.904;2022-10-16T02:40:07;16.90;92.60
51007;DHT22;37034;47.886;-3.904;2022-10-16T02:42:35;16.90;92.70
51007;DHT22;37034;47.886;-3.904;2022-10-16T02:45:01;16.90;92.50
51007;DHT22;37034;47.886;-3.904;2022-10-16T02:47:26;16.80;92.50
51007;DHT22;37034;47.886;-3.904;2022-10-16T02:49:52;16.80;92.60
51007;DHT22;37034;47.886;-3.904;2022-10-16T02:52:18;16.80;92.70
51007;DHT22;37034;47.886;-3.904;2022-10-16T02:54:43;16.80;92.70
51007;DHT22;37034;47.886;-3.904;2022-10-16T02:57:09;16.80;92.50
51007;DHT22;37034;47.886;-3.904;2022-10-16T02:59:35;16.70;92.30
51007;DHT22;37034;47.886;-3.904;2022-10-16T03:02:00;16.60;92.10
51007;DHT22;37034;47.886;-3.904;2022-10-16T03:04:26;16.60;92.20
51007;DHT22;37034;47.886;-3.904;2022-10-16T03:06:51;16.50;92.30
51007;DHT22;37034;47.886;-3.904;2022-10-16T03:09:17;16.50;92.40
51007;DHT22;37034;47.886;-3.904;2022-10-16T03:11:43;16.40;92.60
51007;DHT22;37034;47.886;-3.904;2022-10-16T03:14:08;16.40;92.50
51007;DHT22;37034;47.886;-3.904;2022-10-16T03:16:34;16.40;92.60
51007;DHT22;37034;47.886;-3.904;2022-10-16T03:18:59;16.40;92.50
51007;DHT22;37034;47.886;-3.904;2022-10-16T03:21:25;16.40;92.40
51007;DHT22;37034;47.886;-3.904;2022-10-16T03:23:51;16.40;92.10
51007;DHT22;37034;47.886;-3.904;2022-10-16T03:26:16;16.30;92.00
51007;DHT22;37034;47.886;-3.904;2022-10-16T03:28:42;16.20;92.20
51007;DHT22;37034;47.886;-3.904;2022-10-16T03:31:08;16.20;92.30
51007;DHT22;37034;47.886;-3.904;2022-10-16T03:33:33;16.20;92.60
51007;DHT22;37034;47.886;-3.904;2022-10-16T03:35:59;16.20;92.40
51007;DHT22;37034;47.886;-3.904;2022-10-16T03:38:25;16.10;92.30
51007;DHT22;37034;47.886;-3.904;2022-10-16T03:40:51;16.10;92.40
51007;DHT22;37034;47.886;-3.904;2022-10-16T03:43:17;16.10;92.50
51007;DHT22;37034;47.886;-3.904;2022-10-16T03:45:42;16.10;92.30
51007;DHT22;37034;47.886;-3.904;2022-10-16T03:48:08;16.10;92.30
51007;DHT22;37034;47.886;-3.904;2022-10-16T03:50:34;16.00;92.20
51007;DHT22;37034;47.886;-3.904;2022-10-16T03:52:59;16.00;92.30
51007;DHT22;37034;47.886;-3.904;2022-10-16T03:55:25;16.00;92.60
51007;DHT22;37034;47.886;-3.904;2022-10-16T03:57:51;16.00;92.70
51007;DHT22;37034;47.886;-3.904;2022-10-16T04:00:16;16.00;92.70
51007;DHT22;37034;47.886;-3.904;2022-10-16T04:02:42;16.10;92.80
51007;DHT22;37034;47.886;-3.904;2022-10-16T04:05:08;16.10;92.60
51007;DHT22;37034;47.886;-3.904;2022-10-16T04:07:34;16.10;92.60
51007;DHT22;37034;47.886;-3.904;2022-10-16T04:09:59;16.10;92.60
51007;DHT22;37034;47.886;-3.904;2022-10-16T04:12:26;16.10;92.70
51007;DHT22;37034;47.886;-3.904;2022-10-16T04:14:52;16.10;92.70
51007;DHT22;37034;47.886;-3.904;2022-10-16T04:17:17;16.10;92.80
51007;DHT22;37034;47.886;-3.904;2022-10-16T04:19:43;16.10;92.80
51007;DHT22;37034;47.886;-3.904;2022-10-16T04:22:09;16.20;92.90
51007;DHT22;37034;47.886;-3.904;2022-10-16T04:24:34;16.20;92.80
51007;DHT22;37034;47.886;-3.904;2022-10-16T04:27:01;16.20;93.00
51007;DHT22;37034;47.886;-3.904;2022-10-16T04:29:26;16.30;93.00
51007;DHT22;37034;47.886;-3.904;2022-10-16T04:31:52;16.30;93.00
51007;DHT22;37034;47.886;-3.904;2022-10-16T04:34:17;16.40;93.00
51007;DHT22;37034;47.886;-3.904;2022-10-16T04:36:43;16.40;93.00
51007;DHT22;37034;47.886;-3.904;2022-10-16T04:39:09;16.40;93.00
51007;DHT22;37034;47.886;-3.904;2022-10-16T04:41:35;16.40;93.20
51007;DHT22;37034;47.886;-3.904;2022-10-16T04:44:00;16.50;93.20
51007;DHT22;37034;47.886;-3.904;2022-10-16T04:46:26;16.50;93.20
51007;DHT22;37034;47.886;-3.904;2022-10-16T04:48:52;16.60;93.20
51007;DHT22;37034;47.886;-3.904;2022-10-16T04:51:17;16.60;93.20
51007;DHT22;37034;47.886;-3.904;2022-10-16T04:53:44;16.60;93.10
51007;DHT22;37034;47.886;-3.904;2022-10-16T04:56:09;16.60;93.00
51007;DHT22;37034;47.886;-3.904;2022-10-16T04:58:35;16.60;92.90
51007;DHT22;37034;47.886;-3.904;2022-10-16T05:01:01;16.50;92.90
51007;DHT22;37034;47.886;-3.904;2022-10-16T05:03:26;16.50;93.10
51007;DHT22;37034;47.886;-3.904;2022-10-16T05:05:52;16.50;92.90
51007;DHT22;37034;47.886;-3.904;2022-10-16T05:08:18;16.40;92.90
51007;DHT22;37034;47.886;-3.904;2022-10-16T05:10:44;16.40;92.90
51007;DHT22;37034;47.886;-3.904;2022-10-16T05:13:11;16.40;93.00
51007;DHT22;37034;47.886;-3.904;2022-10-16T05:15:36;16.30;93.00
51007;DHT22;37034;47.886;-3.904;2022-10-16T05:18:02;16.40;93.10
51007;DHT22;37034;47.886;-3.904;2022-10-16T05:20:28;16.40;93.00
51007;DHT22;37034;47.886;-3.904;2022-10-16T05:22:54;16.30;93.00
51007;DHT22;37034;47.886;-3.904;2022-10-16T05:25:19;16.30;93.00
51007;DHT22;37034;47.886;-3.904;2022-10-16T05:27:48;16.30;93.10
51007;DHT22;37034;47.886;-3.904;2022-10-16T05:30:15;16.40;93.20
51007;DHT22;37034;47.886;-3.904;2022-10-16T05:32:41;16.30;93.10
51007;DHT22;37034;47.886;-3.904;2022-10-16T05:35:07;16.30;93.20
51007;DHT22;37034;47.886;-3.904;2022-10-16T05:37:32;16.30;93.20
51007;DHT22;37034;47.886;-3.904;2022-10-16T05:39:58;16.40;93.20
51007;DHT22;37034;47.886;-3.904;2022-10-16T05:42:24;16.30;93.20
51007;DHT22;37034;47.886;-3.904;2022-10-16T05:44:49;16.40;93.20
51007;DHT22;37034;47.886;-3.904;2022-10-16T05:47:15;16.40;93.20
51007;DHT22;37034;47.886;-3.904;2022-10-16T05:49:40;16.40;93.30
51007;DHT22;37034;47.886;-3.904;2022-10-16T05:52:06;16.40;93.30
51007;DHT22;37034;47.886;-3.904;2022-10-16T05:54:32;16.40;93.40
51007;DHT22;37034;47.886;-3.904;2022-10-16T05:56:57;16.40;93.50
51007;DHT22;37034;47.886;-3.904;2022-10-16T05:59:23;16.40;93.50
51007;DHT22;37034;47.886;-3.904;2022-10-16T06:01:49;16.50;93.50
51007;DHT22;37034;47.886;-3.904;2022-10-16T06:04:14;16.50;93.50
51007;DHT22;37034;47.886;-3.904;2022-10-16T06:06:40;16.50;93.50
51007;DHT22;37034;47.886;-3.904;2022-10-16T06:09:06;16.50;93.40
51007;DHT22;37034;47.886;-3.904;2022-10-16T06:11:32;16.50;93.40
51007;DHT22;37034;47.886;-3.904;2022-10-16T06:14:00;16.50;93.50
51007;DHT22;37034;47.886;-3.904;2022-10-16T06:16:33;16.60;93.60
51007;DHT22;37034;47.886;-3.904;2022-10-16T06:19:00;16.60;93.60
51007;DHT22;37034;47.886;-3.904;2022-10-16T06:21:27;16.60;93.60
51007;DHT22;37034;47.886;-3.904;2022-10-16T06:23:54;16.70;93.60
51007;DHT22;37034;47.886;-3.904;2022-10-16T06:26:23;16.70;93.50
51007;DHT22;37034;47.886;-3.904;2022-10-16T06:28:49;16.70;93.60
51007;DHT22;37034;47.886;-3.904;2022-10-16T06:31:16;16.70;93.50
51007;DHT22;37034;47.886;-3.904;2022-10-16T06:33:42;16.70;93.50
51007;DHT22;37034;47.886;-3.904;2022-10-16T06:36:13;16.80;93.60
51007;DHT22;37034;47.886;-3.904;2022-10-16T06:38:40;16.80;93.60
51007;DHT22;37034;47.886;-3.904;2022-10-16T06:41:07;16.80;93.60
51007;DHT22;37034;47.886;-3.904;2022-10-16T06:43:33;16.80;93.70
51007;DHT22;37034;47.886;-3.904;2022-10-16T06:46:03;16.80;93.70
51007;DHT22;37034;47.886;-3.904;2022-10-16T06:48:30;16.90;93.70
51007;DHT22;37034;47.886;-3.904;2022-10-16T06:50:57;16.90;93.70
51007;DHT22;37034;47.886;-3.904;2022-10-16T06:53:23;16.90;93.70
51007;DHT22;37034;47.886;-3.904;2022-10-16T06:55:49;16.90;93.60
51007;DHT22;37034;47.886;-3.904;2022-10-16T06:58:15;16.90;93.60
51007;DHT22;37034;47.886;-3.904;2022-10-16T07:00:40;17.00;93.70
51007;DHT22;37034;47.886;-3.904;2022-10-16T07:03:06;17.00;93.70
51007;DHT22;37034;47.886;-3.904;2022-10-16T07:05:32;17.00;93.70
51007;DHT22;37034;47.886;-3.904;2022-10-16T07:08:02;17.00;93.70
51007;DHT22;37034;47.886;-3.904;2022-10-16T07:10:30;17.00;93.60
51007;DHT22;37034;47.886;-3.904;2022-10-16T07:12:56;17.00;93.60
51007;DHT22;37034;47.886;-3.904;2022-10-16T07:15:22;17.00;93.70
51007;DHT22;37034;47.886;-3.904;2022-10-16T07:17:48;17.10;93.70
51007;DHT22;37034;47.886;-3.904;2022-10-16T07:20:14;17.10;93.80
51007;DHT22;37034;47.886;-3.904;2022-10-16T07:22:40;17.10;93.80
51007;DHT22;37034;47.886;-3.904;2022-10-16T07:25:06;17.20;93.70
51007;DHT22;37034;47.886;-3.904;2022-10-16T07:27:31;17.20;93.80
51007;DHT22;37034;47.886;-3.904;2022-10-16T07:29:57;17.30;93.80
51007;DHT22;37034;47.886;-3.904;2022-10-16T07:32:23;17.30;93.90
51007;DHT22;37034;47.886;-3.904;2022-10-16T07:34:51;17.40;93.80
51007;DHT22;37034;47.886;-3.904;2022-10-16T07:37:17;17.40;93.80
51007;DHT22;37034;47.886;-3.904;2022-10-16T07:39:43;17.40;93.90
51007;DHT22;37034;47.886;-3.904;2022-10-16T07:42:08;17.50;93.90
51007;DHT22;37034;47.886;-3.904;2022-10-16T07:44:34;17.50;93.90
51007;DHT22;37034;47.886;-3.904;2022-10-16T07:47:00;17.50;93.80
51007;DHT22;37034;47.886;-3.904;2022-10-16T07:49:25;17.60;93.90
51007;DHT22;37034;47.886;-3.904;2022-10-16T07:51:51;17.60;93.90
51007;DHT22;37034;47.886;-3.904;2022-10-16T07:54:17;17.70;93.90
51007;DHT22;37034;47.886;-3.904;2022-10-16T07:56:43;17.70;93.90
51007;DHT22;37034;47.886;-3.904;2022-10-16T07:59:08;17.80;93.90
51007;DHT22;37034;47.886;-3.904;2022-10-16T08:01:34;17.80;93.90
51007;DHT22;37034;47.886;-3.904;2022-10-16T08:03:59;17.90;94.00
51007;DHT22;37034;47.886;-3.904;2022-10-16T08:06:25;17.90;94.00
51007;DHT22;37034;47.886;-3.904;2022-10-16T08:08:51;17.90;93.90
51007;DHT22;37034;47.886;-3.904;2022-10-16T08:11:17;18.00;93.90
51007;DHT22;37034;47.886;-3.904;2022-10-16T08:13:42;18.00;93.80
51007;DHT22;37034;47.886;-3.904;2022-10-16T08:16:08;18.00;93.80
51007;DHT22;37034;47.886;-3.904;2022-10-16T08:18:36;18.00;93.80
51007;DHT22;37034;47.886;-3.904;2022-10-16T08:21:03;18.00;94.00
51007;DHT22;37034;47.886;-3.904;2022-10-16T08:23:29;18.10;93.80
51007;DHT22;37034;47.886;-3.904;2022-10-16T08:25:56;18.10;93.80
51007;DHT22;37034;47.886;-3.904;2022-10-16T08:28:22;18.10;93.80
51007;DHT22;37034;47.886;-3.904;2022-10-16T08:30:48;18.10;93.90
51007;DHT22;37034;47.886;-3.904;2022-10-16T08:33:14;18.10;93.80
51007;DHT22;37034;47.886;-3.904;2022-10-16T08:35:39;18.20;93.80
51007;DHT22;37034;47.886;-3.904;2022-10-16T08:38:06;18.20;93.80
51007;DHT22;37034;47.886;-3.904;2022-10-16T08:40:33;18.20;93.70
51007;DHT22;37034;47.886;-3.904;2022-10-16T08:50:44;18.10;93.80
51007;DHT22;37034;47.886;-3.904;2022-10-16T08:53:44;18.10;93.80
51007;DHT22;37034;47.886;-3.904;2022-10-16T08:56:12;18.10;94.00
51007;DHT22;37034;47.886;-3.904;2022-10-16T08:58:37;18.20;93.90
51007;DHT22;37034;47.886;-3.904;2022-10-16T09:01:09;18.20;93.90
51007;DHT22;37034;47.886;-3.904;2022-10-16T09:06:49;18.20;94.00
51007;DHT22;37034;47.886;-3.904;2022-10-16T09:17:25;18.20;94.20
51007;DHT22;37034;47.886;-3.904;2022-10-16T09:22:45;18.30;94.30
51007;DHT22;37034;47.886;-3.904;2022-10-16T09:25:13;18.30;94.30
51007;DHT22;37034;47.886;-3.904;2022-10-16T09:27:40;18.30;94.40
51007;DHT22;37034;47.886;-3.904;2022-10-16T09:30:17;18.30;94.40
51007;DHT22;37034;47.886;-3.904;2022-10-16T09:32:44;18.30;94.60
51007;DHT22;37034;47.886;-3.904;2022-10-16T09:35:35;18.40;94.70
51007;DHT22;37034;47.886;-3.904;2022-10-16T09:38:02;18.40;94.70
51007;DHT22;37034;47.886;-3.904;2022-10-16T09:40:36;18.50;94.60
51007;DHT22;37034;47.886;-3.904;2022-10-16T09:43:24;18.50;94.70
51007;DHT22;37034;47.886;-3.904;2022-10-16T09:46:02;18.50;94.80
51007;DHT22;37034;47.886;-3.904;2022-10-16T09:48:36;18.50;94.70
51007;DHT22;37034;47.886;-3.904;2022-10-16T09:51:04;18.40;94.50
51007;DHT22;37034;47.886;-3.904;2022-10-16T09:53:41;18.30;94.60
51007;DHT22;37034;47.886;-3.904;2022-10-16T09:56:11;18.30;94.60
51007;DHT22;37034;47.886;-3.904;2022-10-16T09:58:42;18.30;94.50
51007;DHT22;37034;47.886;-3.904;2022-10-16T10:01:13;18.30;94.60
51007;DHT22;37034;47.886;-3.904;2022-10-16T10:03:42;18.30;94.60
51007;DHT22;37034;47.886;-3.904;2022-10-16T10:06:26;18.30;94.60
51007;DHT22;37034;47.886;-3.904;2022-10-16T10:09:19;18.20;94.70
51007;DHT22;37034;47.886;-3.904;2022-10-16T10:11:49;18.20;94.60
51007;DHT22;37034;47.886;-3.904;2022-10-16T10:22:29;18.20;94.90
51007;DHT22;37034;47.886;-3.904;2022-10-16T10:42:08;18.40;95.00
51007;DHT22;37034;47.886;-3.904;2022-10-16T10:52:45;18.40;95.10
51007;DHT22;37034;47.886;-3.904;2022-10-16T10:55:23;18.40;95.20
51007;DHT22;37034;47.886;-3.904;2022-10-16T11:01:00;18.50;95.40
51007;DHT22;37034;47.886;-3.904;2022-10-16T11:06:20;18.60;95.30
51007;DHT22;37034;47.886;-3.904;2022-10-16T11:09:06;18.60;95.20
51007;DHT22;37034;47.886;-3.904;2022-10-16T11:16:58;18.50;95.30
51007;DHT22;37034;47.886;-3.904;2022-10-16T11:19:37;18.50;95.50
51007;DHT22;37034;47.886;-3.904;2022-10-16T11:28:23;18.60;95.50
51007;DHT22;37034;47.886;-3.904;2022-10-16T11:30:57;18.60;95.60
51007;DHT22;37034;47.886;-3.904;2022-10-16T11:33:42;18.70;95.50
51007;DHT22;37034;47.886;-3.904;2022-10-16T11:36:22;18.60;95.60
51007;DHT22;37034;47.886;-3.904;2022-10-16T11:39:02;18.60;95.60
51007;DHT22;37034;47.886;-3.904;2022-10-16T11:41:45;18.50;95.80
51007;DHT22;37034;47.886;-3.904;2022-10-16T11:44:33;18.60;95.90
51007;DHT22;37034;47.886;-3.904;2022-10-16T11:47:12;18.60;96.10
51007;DHT22;37034;47.886;-3.904;2022-10-16T11:49:42;18.60;96.00
51007;DHT22;37034;47.886;-3.904;2022-10-16T11:55:12;18.60;96.40
51007;DHT22;37034;47.886;-3.904;2022-10-16T11:57:44;18.70;96.30
51007;DHT22;37034;47.886;-3.904;2022-10-16T12:00:21;18.70;96.30
51007;DHT22;37034;47.886;-3.904;2022-10-16T12:03:12;18.80;96.30
51007;DHT22;37034;47.886;-3.904;2022-10-16T12:08:30;18.80;96.60
51007;DHT22;37034;47.886;-3.904;2022-10-16T12:14:20;18.70;96.70
51007;DHT22;37034;47.886;-3.904;2022-10-16T12:16:58;18.60;96.80
51007;DHT22;37034;47.886;-3.904;2022-10-16T12:19:29;18.70;97.00
51007;DHT22;37034;47.886;-3.904;2022-10-16T12:21:58;18.70;96.90
51007;DHT22;37034;47.886;-3.904;2022-10-16T12:24:36;18.70;97.00
51007;DHT22;37034;47.886;-3.904;2022-10-16T12:27:06;18.70;97.00
51007;DHT22;37034;47.886;-3.904;2022-10-16T12:29:40;18.80;96.90
51007;DHT22;37034;47.886;-3.904;2022-10-16T12:32:26;18.80;97.20
51007;DHT22;37034;47.886;-3.904;2022-10-16T12:34:53;18.90;97.20
51007;DHT22;37034;47.886;-3.904;2022-10-16T12:37:24;18.90;97.20
51007;DHT22;37034;47.886;-3.904;2022-10-16T12:39:53;19.10;97.00
51007;DHT22;37034;47.886;-3.904;2022-10-16T12:44:46;19.10;96.70
51007;DHT22;37034;47.886;-3.904;2022-10-16T12:47:21;19.00;97.00
51007;DHT22;37034;47.886;-3.904;2022-10-16T12:49:52;19.10;97.10
51007;DHT22;37034;47.886;-3.904;2022-10-16T12:54:59;19.20;97.00
51007;DHT22;37034;47.886;-3.904;2022-10-16T13:00:14;19.30;96.80
51007;DHT22;37034;47.886;-3.904;2022-10-16T13:14:37;19.20;97.00
51007;DHT22;37034;47.886;-3.904;2022-10-16T13:22:47;19.00;96.80
51007;DHT22;37034;47.886;-3.904;2022-10-16T13:25:35;19.00;96.80
51007;DHT22;37034;47.886;-3.904;2022-10-16T13:28:07;19.10;96.90
51007;DHT22;37034;47.886;-3.904;2022-10-16T13:30:44;19.10;96.70
51007;DHT22;37034;47.886;-3.904;2022-10-16T13:33:41;19.00;97.00
51007;DHT22;37034;47.886;-3.904;2022-10-16T13:36:06;19.10;96.90
51007;DHT22;37034;47.886;-3.904;2022-10-16T13:38:34;19.10;96.80
51007;DHT22;37034;47.886;-3.904;2022-10-16T13:41:01;19.10;96.70
51007;DHT22;37034;47.886;-3.904;2022-10-16T13:43:34;19.10;96.80
51007;DHT22;37034;47.886;-3.904;2022-10-16T13:46:07;19.10;96.90
51007;DHT22;37034;47.886;-3.904;2022-10-16T13:48:36;19.10;96.90
51007;DHT22;37034;47.886;-3.904;2022-10-16T13:51:16;19.20;96.90
51007;DHT22;37034;47.886;-3.904;2022-10-16T13:53:43;19.20;97.10
51007;DHT22;37034;47.886;-3.904;2022-10-16T13:56:15;19.30;97.00
51007;DHT22;37034;47.886;-3.904;2022-10-16T13:58:41;19.30;97.10
51007;DHT22;37034;47.886;-3.904;2022-10-16T14:01:19;19.30;96.90
51007;DHT22;37034;47.886;-3.904;2022-10-16T14:03:46;19.40;96.90
51007;DHT22;37034;47.886;-3.904;2022-10-16T14:06:23;19.50;96.90
51007;DHT22;37034;47.886;-3.904;2022-10-16T14:08:59;19.50;96.80
51007;DHT22;37034;47.886;-3.904;2022-10-16T14:11:26;19.50;96.80
51007;DHT22;37034;47.886;-3.904;2022-10-16T14:13:52;19.50;97.00
51007;DHT22;37034;47.886;-3.904;2022-10-16T14:16:24;19.50;97.00
51007;DHT22;37034;47.886;-3.904;2022-10-16T14:21:22;19.50;96.90
51007;DHT22;37034;47.886;-3.904;2022-10-16T14:23:47;19.50;96.80
51007;DHT22;37034;47.886;-3.904;2022-10-16T14:26:15;19.50;96.80
51007;DHT22;37034;47.886;-3.904;2022-10-16T14:28:43;19.40;96.80
51007;DHT22;37034;47.886;-3.904;2022-10-16T14:31:24;19.50;96.80
51007;DHT22;37034;47.886;-3.904;2022-10-16T14:33:50;19.40;96.80
51007;DHT22;37034;47.886;-3.904;2022-10-16T14:36:16;19.40;96.60
51007;DHT22;37034;47.886;-3.904;2022-10-16T14:39:14;19.30;96.70
51007;DHT22;37034;47.886;-3.904;2022-10-16T14:41:47;19.30;97.00
51007;DHT22;37034;47.886;-3.904;2022-10-16T14:44:14;19.30;96.90
51007;DHT22;37034;47.886;-3.904;2022-10-16T14:46:41;19.30;97.30
51007;DHT22;37034;47.886;-3.904;2022-10-16T14:51:40;19.30;96.90
51007;DHT22;37034;47.886;-3.904;2022-10-16T14:54:08;19.20;97.20
51007;DHT22;37034;47.886;-3.904;2022-10-16T14:59:19;19.20;97.40
51007;DHT22;37034;47.886;-3.904;2022-10-16T15:01:47;19.30;97.30
51007;DHT22;37034;47.886;-3.904;2022-10-16T15:04:13;19.30;97.20
51007;DHT22;37034;47.886;-3.904;2022-10-16T15:06:39;19.30;97.20
51007;DHT22;37034;47.886;-3.904;2022-10-16T15:09:05;19.40;97.30
51007;DHT22;37034;47.886;-3.904;2022-10-16T15:11:32;19.20;97.10
51007;DHT22;37034;47.886;-3.904;2022-10-16T15:13:58;19.20;97.40
51007;DHT22;37034;47.886;-3.904;2022-10-16T15:16:24;19.10;97.60
51007;DHT22;37034;47.886;-3.904;2022-10-16T15:18:50;19.20;97.70
51007;DHT22;37034;47.886;-3.904;2022-10-16T15:21:29;19.20;97.50
51007;DHT22;37034;47.886;-3.904;2022-10-16T15:23:57;19.30;97.60
51007;DHT22;37034;47.886;-3.904;2022-10-16T15:26:40;19.30;97.60
51007;DHT22;37034;47.886;-3.904;2022-10-16T15:29:12;19.40;97.50
51007;DHT22;37034;47.886;-3.904;2022-10-16T15:31:38;19.40;97.20
51007;DHT22;37034;47.886;-3.904;2022-10-16T15:34:26;19.60;97.10
51007;DHT22;37034;47.886;-3.904;2022-10-16T15:37:03;19.60;97.10
51007;DHT22;37034;47.886;-3.904;2022-10-16T15:39:31;19.60;97.10
51007;DHT22;37034;47.886;-3.904;2022-10-16T15:41:57;19.60;97.00
51007;DHT22;37034;47.886;-3.904;2022-10-16T15:44:22;19.50;97.00
51007;DHT22;37034;47.886;-3.904;2022-10-16T15:46:50;19.70;97.10
51007;DHT22;37034;47.886;-3.904;2022-10-16T15:49:19;19.70;97.00
51007;DHT22;37034;47.886;-3.904;2022-10-16T15:51:45;19.70;97.00
51007;DHT22;37034;47.886;-3.904;2022-10-16T15:54:11;19.80;96.90
51007;DHT22;37034;47.886;-3.904;2022-10-16T15:56:37;19.80;96.70
51007;DHT22;37034;47.886;-3.904;2022-10-16T15:59:03;19.80;96.70
51007;DHT22;37034;47.886;-3.904;2022-10-16T16:01:31;19.80;96.70
51007;DHT22;37034;47.886;-3.904;2022-10-16T16:03:57;19.80;96.60
51007;DHT22;37034;47.886;-3.904;2022-10-16T16:06:23;19.80;96.60
51007;DHT22;37034;47.886;-3.904;2022-10-16T16:08:52;19.80;96.70
51007;DHT22;37034;47.886;-3.904;2022-10-16T16:11:18;19.90;96.60
51007;DHT22;37034;47.886;-3.904;2022-10-16T16:13:44;19.90;96.40
51007;DHT22;37034;47.886;-3.904;2022-10-16T16:16:17;19.90;96.60
51007;DHT22;37034;47.886;-3.904;2022-10-16T16:18:45;19.90;96.40
51007;DHT22;37034;47.886;-3.904;2022-10-16T16:21:12;19.90;96.40
51007;DHT22;37034;47.886;-3.904;2022-10-16T16:23:38;19.80;96.40
51007;DHT22;37034;47.886;-3.904;2022-10-16T16:26:09;19.80;96.40
51007;DHT22;37034;47.886;-3.904;2022-10-16T16:28:35;19.90;96.50
51007;DHT22;37034;47.886;-3.904;2022-10-16T16:31:01;19.80;96.40
51007;DHT22;37034;47.886;-3.904;2022-10-16T16:33:27;19.90;96.40
51007;DHT22;37034;47.886;-3.904;2022-10-16T16:36:02;19.90;96.50
51007;DHT22;37034;47.886;-3.904;2022-10-16T16:38:29;19.90;96.40
51007;DHT22;37034;47.886;-3.904;2022-10-16T16:40:55;19.90;96.40
51007;DHT22;37034;47.886;-3.904;2022-10-16T16:43:25;19.80;96.30
51007;DHT22;37034;47.886;-3.904;2022-10-16T16:45:52;19.80;96.40
51007;DHT22;37034;47.886;-3.904;2022-10-16T16:48:18;19.80;96.40
51007;DHT22;37034;47.886;-3.904;2022-10-16T16:50:44;19.80;96.40
51007;DHT22;37034;47.886;-3.904;2022-10-16T16:53:10;19.80;96.30
51007;DHT22;37034;47.886;-3.904;2022-10-16T16:55:35;19.80;96.40
51007;DHT22;37034;47.886;-3.904;2022-10-16T16:58:01;19.80;96.30
51007;DHT22;37034;47.886;-3.904;2022-10-16T17:00:28;19.80;96.30
51007;DHT22;37034;47.886;-3.904;2022-10-16T17:02:54;19.80;96.30
51007;DHT22;37034;47.886;-3.904;2022-10-16T17:05:19;19.80;96.30
51007;DHT22;37034;47.886;-3.904;2022-10-16T17:07:45;19.80;96.30
51007;DHT22;37034;47.886;-3.904;2022-10-16T17:10:11;19.80;96.30
51007;DHT22;37034;47.886;-3.904;2022-10-16T17:12:37;19.80;96.30
51007;DHT22;37034;47.886;-3.904;2022-10-16T17:15:03;19.80;96.30
51007;DHT22;37034;47.886;-3.904;2022-10-16T17:17:28;19.80;96.20
51007;DHT22;37034;47.886;-3.904;2022-10-16T17:19:54;19.80;96.20
51007;DHT22;37034;47.886;-3.904;2022-10-16T17:22:23;19.80;96.10
51007;DHT22;37034;47.886;-3.904;2022-10-16T17:24:49;19.80;96.20
51007;DHT22;37034;47.886;-3.904;2022-10-16T17:27:19;19.70;96.10
51007;DHT22;37034;47.886;-3.904;2022-10-16T17:29:49;19.70;96.30
51007;DHT22;37034;47.886;-3.904;2022-10-16T17:32:15;19.70;96.20
51007;DHT22;37034;47.886;-3.904;2022-10-16T17:34:40;19.70;96.20
51007;DHT22;37034;47.886;-3.904;2022-10-16T17:37:06;19.70;96.10